Granger, Wyoming
Current Conditions -  °F | °C
As of 7:35 AM on Thursday 23 Oct 2014 (Local Time) from KFBR Reporting Station
Clear Clear  
Wind Chill: 39°   Ceiling: Unl
Heat Index: 39°   Visibility: NA
Dew Point: 22°   Wind: 3mph
Humidity: 50%   Direction: 160°SSE
Pressure: 30.24"   Gusts: NA
Location:  41.59°N, 109.97°W
Report Text: KFBR 231335Z AUTO 16003KT CLR 04/M05 A3024 RMK AO2 T00401055 PWINO
Loading
Personal Weather Stations






























Interactive Weather Map
Tropical Storm Tracking
New forecast layout! Learn more

10-Day Weather Forecast

Advertisements
Track Severe Weather on mobile